• Join FlightAware (Why Join?)
  • Login
  • US Flag 
05:16AM EDT


 

Airport Tracker/Info


-or-


 

Live Flight TrackerFlight Track Log ✈ UAL1519 ✈ 24-May-2013 ✈ KEWR - KMCO

Flight Track Log - Related Links

Times and Time Zones

All times are in EDT time to prevent confusion due to time zone crossing. See the UAL1519 flight status page for this flight to view local times or setup timezone preferences in your user account.

Time Position Orientation Groundspeed Altitude Reporting Facility
EDT Latitude Longitude Course Direction KTS MPH feet Rate Location/Type
02:32PM 40.7130 -74.1430 54° Northeast 181 208 2,400  Level FlightAware
02:32PM 40.7290 -74.1160 52° Northeast 233 268 3,000 900 Climbing FlightAware
02:32PM 40.7454 -74.0990 38° Northeast 241 277 3,100 240 Climbing FlightAware ADS-B
02:32PM 40.7497 -74.0973 17° North 242 278 3,100  Level FlightAware ADS-B
02:33PM 40.7531 -74.0966 North 242 278 3,100 420 Level FlightAware ADS-B
02:33PM 40.7650 -74.0978 356° North 242 278 3,200 840 Climbing FlightAware ADS-B
02:33PM 40.7684 -74.0993 342° North 243 280 3,300 960 Climbing FlightAware ADS-B
02:33PM 40.7717 -74.1014 334° Northwest 247 284 3,300 840 Level FlightAware ADS-B
02:33PM 40.7751 -74.1043 327° Northwest 248 285 3,400 2,220 Climbing FlightAware ADS-B
02:33PM 40.7783 -74.1081 318° Northwest 249 287 3,600 3,000 Climbing FlightAware ADS-B
02:33PM 40.7811 -74.1126 309° West 250 288 3,800 2,520 Climbing FlightAware ADS-B
02:33PM 40.7831 -74.1163 306° West 254 292 3,900 3,000 Climbing FlightAware ADS-B
02:33PM 40.7857 -74.1234 296° West 256 295 4,200 3,720 Climbing FlightAware ADS-B
02:33PM 40.7871 -74.1290 288° West 258 297 4,400 4,320 Climbing FlightAware ADS-B
02:33PM 40.7890 -74.1410 282° West 258 297 5,000 4,140 Climbing FlightAware ADS-B
02:34PM 40.7915 -74.1648 278° West 259 298 6,000 3,720 Climbing FlightAware ADS-B
02:34PM 40.7934 -74.1836 278° West 260 299 6,700 3,360 Climbing FlightAware ADS-B
02:34PM 40.7952 -74.2008 278° West 263 303 7,300 2,520 Climbing FlightAware ADS-B
02:34PM 40.7962 -74.2128 276° West 260 299 7,500 1,500 Climbing FlightAware ADS-B
02:34PM 40.7964 -74.2195 272° West 274 315 7,600 1,500 Climbing FlightAware ADS-B
02:34PM 40.7952 -74.2339 264° West 278 320 7,800 2,820 Climbing FlightAware ADS-B
02:34PM 40.7927 -74.2518 260° West 277 319 8,500 3,480 Climbing FlightAware ADS-B
02:35PM 40.7926 -74.2528 262° West 277 319 8,500 2,820 Level FlightAware ADS-B
02:35PM 40.7879 -74.2836 259° West 283 326 9,400 2,220 Climbing FlightAware ADS-B
02:35PM 40.7835 -74.3155 260° West 295 339 9,900 1,020 Climbing FlightAware ADS-B
02:35PM 40.7793 -74.3447 259° West 325 374 10,000 240 Climbing FlightAware ADS-B
02:36PM 40.7704 -74.4088 260° West 332 382 10,100 120 Climbing FlightAware ADS-B
02:36PM 40.7660 -74.4417 260° West 327 376 10,100  Level FlightAware ADS-B
02:37PM 40.7600 -74.4857 260° West 302 348 10,100  Level FlightAware ADS-B
02:37PM 40.7531 -74.5383 260° West 282 325 10,100  Level FlightAware ADS-B
02:38PM 40.7471 -74.5858 261° West 288 331 10,100  Level FlightAware ADS-B
02:38PM 40.7466 -74.5896 260° West 284 327 10,100  Level FlightAware ADS-B
02:38PM 40.7445 -74.6020 257° West 282 325 10,100  Level FlightAware ADS-B
02:38PM 40.7375 -74.6250 248° West 278 320 10,100  Level FlightAware ADS-B
02:38PM 40.7325 -74.6353 237° Southwest 277 319 10,100  Level FlightAware ADS-B
02:38PM 40.7265 -74.6449 230° Southwest 276 318 10,100 2,040 Level FlightAware ADS-B
02:39PM 40.6966 -74.6791 221° Southwest 278 320 11,400 2,760 Climbing FlightAware ADS-B
02:39PM 40.6657 -74.7127 220° Southwest 285 328 13,000 3,240 Climbing FlightAware ADS-B
02:40PM 40.6340 -74.7470 219° Southwest 285 328 14,800 3,240 Climbing FlightAware ADS-B
02:40PM 40.6027 -74.7805 219° Southwest 292 336 16,300 2,160 Climbing FlightAware ADS-B
02:41PM 40.5696 -74.8164 219° Southwest 327 376 17,000 780 Climbing FlightAware ADS-B
02:41PM 40.5313 -74.8576 219° Southwest 372 428 17,100 780 Climbing FlightAware ADS-B
02:42PM 40.4894 -74.9027 219° Southwest 397 457 17,800 1,560 Climbing FlightAware ADS-B
02:42PM 40.4464 -74.9490 219° Southwest 412 474 18,700 1,920 Climbing FlightAware ADS-B
02:43PM 40.4108 -74.9915 222° Southwest 419 482 19,600 2,280 Climbing FlightAware ADS-B
02:43PM 40.3681 -75.0504 226° Southwest 423 487 20,900 3,240 Climbing FlightAware ADS-B
02:44PM 40.3286 -75.1065 227° Southwest 402 463 23,000 2,520 Climbing FlightAware ADS-B
02:44PM 40.2884 -75.1633 227° Southwest 422 486 23,500 1,440 Climbing FlightAware ADS-B
02:45PM 40.2470 -75.2211 227° Southwest 427 491 24,500 1,920 Climbing FlightAware ADS-B
02:45PM 40.2060 -75.2787 227° Southwest 430 495 25,500 1,920 Climbing FlightAware ADS-B
02:46PM 40.1636 -75.3377 227° Southwest 432 497 26,500 2,040 Climbing FlightAware ADS-B
02:46PM 40.1171 -75.4024 227° Southwest 425 489 27,800 2,280 Climbing FlightAware ADS-B
02:47PM 40.0757 -75.4603 227° Southwest 420 483 29,000 1,860 Climbing FlightAware ADS-B
02:47PM 40.0330 -75.5195 227° Southwest 425 489 29,800 1,560 Climbing FlightAware ADS-B
02:48PM 39.9916 -75.5768 227° Southwest 427 491 30,700 1,800 Climbing FlightAware ADS-B
02:48PM 39.9488 -75.6361 227° Southwest 425 489 31,700 1,980 Climbing FlightAware ADS-B
02:49PM 39.9089 -75.6942 228° Southwest 423 487 32,800 1,980 Climbing FlightAware ADS-B
02:49PM 39.8713 -75.7538 231° Southwest 418 481 33,800 1,140 Climbing FlightAware ADS-B
02:50PM 39.8328 -75.8154 231° Southwest 419 482 34,000 180 Climbing FlightAware ADS-B
02:51PM 39.7961 -75.8741 231° Southwest 419 482 34,000  Level FlightAware ADS-B
02:51PM 39.7527 -75.9435 231° Southwest 423 487 34,000  Level FlightAware ADS-B
02:52PM 39.7142 -76.0048 231° Southwest 423 487 34,000  Level FlightAware ADS-B
02:52PM 39.6761 -76.0652 231° Southwest 422 486 34,000  Level FlightAware ADS-B
02:53PM 39.6375 -76.1265 231° Southwest 422 486 34,000  Level FlightAware ADS-B
02:53PM 39.6004 -76.1852 231° Southwest 422 486 34,000  Level FlightAware ADS-B
02:54PM 39.5601 -76.2473 230° Southwest 422 486 34,000  Level FlightAware ADS-B
02:54PM 39.5189 -76.3103 230° Southwest 420 483 34,000  Level FlightAware ADS-B
02:55PM 39.4784 -76.3723 230° Southwest 419 482 34,000  Level FlightAware ADS-B
02:55PM 39.4361 -76.4380 230° Southwest 419 482 34,000  Level FlightAware ADS-B
02:56PM 39.3975 -76.4995 231° Southwest 419 482 34,000  Level FlightAware ADS-B
02:56PM 39.3594 -76.5598 231° Southwest 421 484 34,000  Level FlightAware ADS-B
02:57PM 39.3206 -76.6207 231° Southwest 423 487 34,000  Level FlightAware ADS-B
02:57PM 39.2823 -76.6806 230° Southwest 424 488 34,000  Level FlightAware ADS-B
02:58PM 39.2427 -76.7428 231° Southwest 425 489 34,000  Level FlightAware ADS-B
02:58PM 39.2044 -76.8021 230° Southwest 428 493 34,000  Level FlightAware ADS-B
02:59PM 39.1647 -76.8638 230° Southwest 430 495 34,000  Level FlightAware ADS-B
03:00PM 39.1251 -76.9256 230° Southwest 430 495 34,000  Level FlightAware ADS-B
03:00PM 39.0842 -76.9890 230° Southwest 430 495 34,000  Level FlightAware ADS-B
03:00PM 39.0641 -77.0186 229° Southwest 429 494 34,000  Level FlightAware ADS-B
03:01PM 39.0174 -77.0768 224° Southwest 426 490 34,000  Level FlightAware ADS-B
03:01PM 38.9701 -77.1295 221° Southwest 426 490 34,000  Level FlightAware ADS-B
03:02PM 38.9127 -77.1919 220° Southwest 428 493 34,000  Level FlightAware ADS-B
03:03PM 38.8475 -77.2629 220° Southwest 430 495 34,000  Level FlightAware ADS-B
03:03PM 38.7991 -77.3157 220° Southwest 430 495 34,000  Level FlightAware ADS-B
03:04PM 38.7416 -77.3782 220° Southwest 432 497 34,000  Level FlightAware ADS-B
03:05PM 38.6808 -77.4444 220° Southwest 434 499 34,000  Level FlightAware ADS-B
03:05PM 38.6247 -77.5053 220° Southwest 436 502 34,000  Level FlightAware ADS-B
03:06PM 38.5771 -77.5568 220° Southwest 439 505 34,000  Level FlightAware ADS-B
03:06PM 38.5291 -77.6088 220° Southwest 441 507 34,000  Level FlightAware ADS-B
03:07PM 38.4762 -77.6656 220° Southwest 443 510 34,000  Level FlightAware ADS-B
03:08PM 38.3734 -77.7762 220° Southwest 443 510 34,000  Level FlightAware ADS-B
03:09PM 38.2970 -77.8579 220° Southwest 442 509 34,000  Level FlightAware ADS-B
03:09PM 38.2430 -77.9160 220° Southwest 442 509 34,000  Level FlightAware
03:10PM 38.1910 -77.9710 220° Southwest 443 510 34,000  Level FlightAware
03:11PM 38.1240 -78.0420 220° Southwest 445 512 34,000  Level FlightAware
03:11PM 38.0470 -78.1230 220° Southwest 446 513 34,000  Level FlightAware
03:12PM 37.9810 -78.1920 219° Southwest 444 511 34,000  Level FlightAware
03:13PM 37.9120 -78.2560 216° Southwest 445 512 34,000  Level FlightAware
03:13PM 37.8400 -78.3240 217° Southwest 443 510 34,000  Level FlightAware
03:14PM 37.7700 -78.3900 217° Southwest 443 510 34,000  Level FlightAware
03:15PM 37.7020 -78.4550 217° Southwest 442 509 34,000  Level FlightAware
03:16PM 37.6300 -78.5230 217° Southwest 442 509 34,000  Level FlightAware
03:16PM 37.5650 -78.5840 217° Southwest 442 509 34,000  Level FlightAware
03:17PM 37.5000 -78.6450 217° Southwest 445 512 34,000  Level FlightAware
03:18PM 37.4260 -78.7140 217° Southwest 453 521 34,000  Level FlightAware
03:18PM 37.3560 -78.7800 217° Southwest 455 524 34,000  Level FlightAware
03:19PM 37.2830 -78.8480 217° Southwest 457 526 34,000  Level FlightAware
03:20PM 37.2180 -78.9080 216° Southwest 461 531 34,000  Level FlightAware
03:20PM 37.1560 -78.9660 217° Southwest 460 529 34,000  Level FlightAware
03:21PM 37.0580 -79.0560 216° Southwest 462 532 34,000  Level FlightAware
03:22PM 36.9760 -79.1320 217° Southwest 466 536 34,000 -600 Level FlightAware
03:23PM 36.9050 -79.1980 217° Southwest 471 542 33,200 -840 Descending FlightAware
03:23PM 36.8370 -79.2600 216° Southwest 473 544 32,900 -780 Descending FlightAware
03:24PM 36.7580 -79.3320 216° Southwest 454 522 32,100 -480 Descending FlightAware
03:26PM 36.6310 -79.4480 216° Southwest 450 518 32,000 -60 Descending FlightAware
03:26PM 36.5660 -79.5060 216° Southwest 450 518 32,000  Level FlightAware
03:28PM 36.3486 -79.6978 216° Southwest 459 528 32,000  Level Atlanta Center
03:34PM 35.7100 -80.1490 216° Southwest 470 541 32,000  Level FlightAware
03:35PM 35.6320 -80.1880 202° Southwest 470 541 32,000  Level FlightAware
03:35PM 35.5410 -80.2340 202° Southwest 468 539 32,000  Level FlightAware
03:36PM 35.4530 -80.2770 202° Southwest 466 536 32,000  Level FlightAware
03:37PM 35.3680 -80.3200 202° Southwest 470 541 32,000  Level FlightAware
03:37PM 35.2840 -80.3620 202° Southwest 469 540 32,000  Level FlightAware
03:38PM 35.2020 -80.4020 202° Southwest 475 547 32,000  Level FlightAware
03:39PM 35.1130 -80.4460 202° Southwest 476 548 32,000  Level FlightAware
03:40PM 35.0230 -80.4910 202° Southwest 475 547 32,000  Level FlightAware
03:41PM 34.9720 -80.5160 202° Southwest 475 547 32,000  Level FlightAware
03:41PM 34.8300 -80.5860 202° Southwest 473 544 32,000  Level FlightAware
03:42PM 34.7510 -80.6250 202° Southwest 473 544 32,000  Level FlightAware
03:43PM 34.6730 -80.6630 202° Southwest 474 545 32,000  Level FlightAware
03:43PM 34.5770 -80.7100 202° Southwest 474 545 32,000  Level FlightAware
03:44PM 34.4970 -80.7490 202° Southwest 473 544 32,000  Level FlightAware
03:45PM 34.3880 -80.8020 202° Southwest 472 543 32,000  Level FlightAware
03:46PM 34.2260 -80.8800 202° Southwest 474 545 32,000  Level FlightAware
03:47PM 34.1390 -80.9220 202° Southwest 473 544 32,000  Level FlightAware
03:48PM 34.0590 -80.9610 202° Southwest 473 544 32,000  Level FlightAware
03:48PM 33.9850 -80.9960 201° Southwest 475 547 32,000  Level FlightAware
03:49PM 33.8900 -81.0410 201° Southwest 470 541 32,000  Level FlightAware
03:49PM 33.8250 -81.0600 194° South 475 547 32,000  Level FlightAware
03:51PM 33.7290 -81.0700 185° South 470 541 32,000  Level FlightAware
03:51PM 33.5560 -81.0840 184° South 467 537 32,000  Level FlightAware
03:52PM 33.4610 -81.0920 184° South 469 540 32,000  Level FlightAware
03:53PM 33.3610 -81.1010 184° South 470 541 32,000  Level FlightAware
03:54PM 33.2870 -81.1070 184° South 469 540 32,000  Level FlightAware
03:54PM 33.1860 -81.1160 184° South 466 536 32,000  Level FlightAware
03:55PM 33.0860 -81.1250 184° South 465 535 32,000  Level FlightAware
03:56PM 32.9830 -81.1330 184° South 462 532 32,000  Level FlightAware
03:57PM 32.8990 -81.1400 184° South 462 532 32,000  Level FlightAware
03:57PM 32.8140 -81.1470 184° South 461 531 32,000  Level FlightAware
03:58PM 32.7280 -81.1550 184° South 461 531 32,000  Level FlightAware
03:59PM 32.6450 -81.1610 183° South 460 529 32,000  Level FlightAware
04:00PM 32.4640 -81.1770 184° South 460 529 32,000  Level FlightAware
04:01PM 32.3400 -81.1870 184° South 460 529 32,000  Level FlightAware
04:02PM 32.2630 -81.1930 184° South 459 528 32,000  Level FlightAware
04:02PM 32.1680 -81.2010 184° South 463 533 32,000  Level FlightAware
04:03PM 32.0650 -81.2010 180° South 468 539 32,000  Level FlightAware
04:04PM 31.9790 -81.1980 178° South 469 540 32,000  Level FlightAware
04:05PM 31.8790 -81.1950 179° South 471 542 32,000  Level FlightAware
04:05PM 31.7840 -81.1920 178° South 472 543 32,000  Level FlightAware
04:06PM 31.7330 -81.1900 178° South 472 543 32,000  Level FlightAware
04:06PM 31.6350 -81.1870 179° South 472 543 32,000  Level FlightAware
04:07PM 31.5510 -81.1840 178° South 470 541 32,000  Level FlightAware
04:08PM 31.4500 -81.1810 179° South 470 541 32,000  Level FlightAware
04:09PM 31.3590 -81.1780 178° South 469 540 32,000  Level FlightAware
04:10PM 31.2440 -81.1750 179° South 469 540 32,000  Level FlightAware
04:10PM 31.1660 -81.1720 178° South 469 540 32,000  Level FlightAware
04:11PM 31.0300 -81.1660 178° South 469 540 32,000  Level FlightAware
04:12PM 30.9660 -81.1630 178° South 469 540 32,000  Level FlightAware
04:13PM 30.8490 -81.1590 178° South 469 540 32,000  Level FlightAware
04:14PM 30.7850 -81.1560 178° South 469 540 32,000  Level FlightAware
04:14PM 30.6960 -81.1520 178° South 469 540 32,000 -480 Level FlightAware
04:15PM 30.5160 -81.1520 180° South 32,000 -780 Level FlightAware
04:16PM 30.4060 -81.1490 179° South 466 536 31,000 -1,320 Descending FlightAware
04:17PM 30.3180 -81.1460 178° South 467 537 30,100 -1,260 Descending FlightAware
04:17PM 30.2280 -81.1430 178° South 463 533 29,300 -1,140 Descending FlightAware
04:18PM 30.1430 -81.1410 179° South 457 526 28,600 -840 Descending FlightAware
04:19PM 30.0130 -81.1360 178° South 452 520 27,800 -840 Descending FlightAware
04:20PM 30.0120 -81.1370 221° Southwest 444 511 27,000 -600 Descending FlightAware
04:20PM 29.9480 -81.1360 179° South 444 511 27,000  Level FlightAware
04:21PM 29.8620 -81.1340 179° South 444 511 27,000  Level FlightAware
04:22PM 29.7940 -81.1330 179° South 444 511 27,000  Level FlightAware
04:23PM 29.7080 -81.1310 179° South 444 511 27,000 -4,380 Level FlightAware
04:23PM 29.4756 -81.1200 179° South 420 483 20,300 -4,980 Descending Jacksonville Center
04:24PM 29.3689 -81.1150 178° South 406 467 18,400 -1,980 Descending Jacksonville Center
04:25PM 29.2603 -81.1122 179° South 396 456 16,400 -2,100 Descending Jacksonville Center
04:26PM 29.1539 -81.1069 178° South 391 450 14,300 -2,040 Descending Jacksonville Center
04:27PM 29.0514 -81.0922 173° South 385 443 12,400 -1,200 Descending Jacksonville Center
04:28PM 28.9489 -81.0822 175° South 380 437 12,000 -780 Descending Jacksonville Center
04:29PM 28.8531 -81.0958 187° South 363 418 10,900 -1,020 Descending Jacksonville Center
04:30PM 28.7833 -81.1167 195° South 302 348 10,100 -1,080 Descending Orlando TRACON
04:31PM 28.7000 -81.1333 190° South 294 338 9,000 -600 Descending Orlando TRACON
04:32PM 28.6333 -81.1667 204° Southwest 240 276 9,000  Level Orlando TRACON
04:33PM 28.5667 -81.1833 192° South 249 287 9,000 -480 Level Orlando TRACON
04:34PM 28.5000 -81.1833 180° South 245 282 8,100 -1,080 Descending Orlando TRACON
04:35PM 28.4333 -81.1833 180° South 243 280 6,900 -1,620 Descending Orlando TRACON
04:36PM 28.3667 -81.1833 180° South 237 273 4,900 -1,740 Descending Orlando TRACON
04:37PM 28.3167 -81.2167 210° Southwest 185 213 3,500 -1,440 Descending Orlando TRACON